createdAt,value
2022-10-23T00:00:28.476Z,10.4
2022-10-23T00:10:30.607Z,10.3
2022-10-23T00:20:32.919Z,10.3
2022-10-23T00:30:35.076Z,10.2
2022-10-23T00:40:37.613Z,9.9
2022-10-23T00:50:39.307Z,9.8
2022-10-23T01:00:41.794Z,9.6
2022-10-23T01:10:44.340Z,9.6
2022-10-23T01:20:46.663Z,9.7
2022-10-23T01:30:48.520Z,9.7
2022-10-23T01:40:50.743Z,9.5
2022-10-23T01:50:52.711Z,9.4
2022-10-23T02:00:54.903Z,9.3
2022-10-23T02:10:57.261Z,9.4
2022-10-23T02:20:59.832Z,9.4
2022-10-23T02:31:02.383Z,9.4
2022-10-23T02:41:04.349Z,9.4
2022-10-23T02:51:06.076Z,9.4
2022-10-23T03:01:07.921Z,9.4
2022-10-23T03:11:10.032Z,9.3
2022-10-23T03:21:11.827Z,9.3
2022-10-23T03:31:13.588Z,9.3
2022-10-23T03:41:15.810Z,9.5
2022-10-23T03:51:17.650Z,9.6
2022-10-23T04:01:19.469Z,9.5
2022-10-23T04:11:21.699Z,9.6
2022-10-23T04:21:33.978Z,9.6
2022-10-23T04:31:36.456Z,10
2022-10-23T04:41:38.233Z,9.8
2022-10-23T04:51:40.219Z,9.8
2022-10-23T05:01:42.464Z,9.8
2022-10-23T05:11:44.077Z,9.8
2022-10-23T05:21:46.555Z,10
2022-10-23T05:31:48.315Z,10
2022-10-23T05:41:50.940Z,10.1
2022-10-23T05:51:53.426Z,10.2
2022-10-23T06:01:55.818Z,10.4
2022-10-23T06:11:58.016Z,10.4
2022-10-23T06:22:00.160Z,10.6
2022-10-23T06:32:02.377Z,10.8
2022-10-23T06:42:04.717Z,10.9
2022-10-23T06:52:10.949Z,11
2022-10-23T07:02:09.836Z,11.1
2022-10-23T07:12:11.852Z,11.2
2022-10-23T07:22:15.678Z,11.3
2022-10-23T07:32:16.738Z,11.5
2022-10-23T07:42:18.799Z,11.8
2022-10-23T07:52:21.351Z,12
2022-10-23T08:02:23.204Z,12.2
2022-10-23T08:12:25.449Z,12.4
2022-10-23T08:22:27.239Z,12.6
2022-10-23T08:32:29.848Z,12.8
2022-10-23T08:42:31.970Z,13
2022-10-23T08:52:34.047Z,13.3
2022-10-23T09:02:36.360Z,13.7
2022-10-23T09:12:38.702Z,14.1
2022-10-23T09:22:41.064Z,14.5
2022-10-23T09:32:42.844Z,14.9
2022-10-23T09:52:47.977Z,15.3
2022-10-23T10:02:50.412Z,15.6
2022-10-23T10:12:52.817Z,15.8
2022-10-23T10:22:55.339Z,16
2022-10-23T10:32:57.519Z,16.2
2022-10-23T10:53:01.651Z,16.4
2022-10-23T11:03:03.722Z,16.4
2022-10-23T11:13:06.084Z,16.6
2022-10-23T11:23:08.403Z,16.7
2022-10-23T11:33:11.006Z,16.8
2022-10-23T11:53:16.392Z,17.3
2022-10-23T12:03:17.908Z,17.6
2022-10-23T12:13:19.758Z,17.8
2022-10-23T12:23:21.574Z,18
2022-10-23T12:33:23.989Z,18.1
2022-10-23T12:43:25.921Z,18.4
2022-10-23T12:53:28.440Z,19
2022-10-23T13:03:30.849Z,19.2
2022-10-23T13:13:32.825Z,19.6
2022-10-23T13:23:34.450Z,19.8
2022-10-23T13:33:36.805Z,19.8
2022-10-23T13:43:38.529Z,19.8
2022-10-23T13:53:40.489Z,20
2022-10-23T14:03:42.615Z,20
2022-10-23T14:13:44.713Z,19.9
2022-10-23T14:23:47.290Z,20
2022-10-23T14:33:49.448Z,20
2022-10-23T14:43:51.524Z,19.9
2022-10-23T14:53:54.045Z,19.7
2022-10-23T15:03:55.531Z,19.6
2022-10-23T15:13:57.495Z,19.4
2022-10-23T15:23:59.698Z,19.2
2022-10-23T15:34:01.934Z,18.9
2022-10-23T15:44:04.541Z,18.7
2022-10-23T15:54:07.175Z,18.6
2022-10-23T16:04:09.303Z,18.4
2022-10-23T16:14:11.994Z,18.2
2022-10-23T16:24:14.257Z,18
2022-10-23T16:34:16.571Z,17.6
2022-10-23T16:44:18.820Z,17.4
2022-10-23T16:54:20.554Z,17.2
2022-10-23T17:04:22.311Z,17.2
2022-10-23T17:14:24.484Z,17.1
2022-10-23T17:24:26.382Z,16.9
2022-10-23T17:34:28.184Z,16.7
2022-10-23T17:44:30.498Z,16.3
2022-10-23T17:54:32.686Z,16.2
2022-10-23T18:04:35.246Z,16.1
2022-10-23T18:14:37.383Z,16
2022-10-23T18:24:39.097Z,15.9
2022-10-23T18:34:41.274Z,15.9
2022-10-23T18:44:43.670Z,15.8
2022-10-23T18:54:45.388Z,15.9
2022-10-23T19:04:47.383Z,15.8
2022-10-23T19:14:49.264Z,15.8
2022-10-23T19:24:50.968Z,15.7
2022-10-23T19:34:52.988Z,15.6
2022-10-23T19:44:55.501Z,15.6
2022-10-23T19:54:57.334Z,15.6
2022-10-23T20:04:59.551Z,15.7
2022-10-23T20:15:01.468Z,15.9
2022-10-23T20:25:03.380Z,16.2
2022-10-23T20:35:05.570Z,16.4
2022-10-23T20:45:07.988Z,16.5
2022-10-23T20:55:10.535Z,16.7
2022-10-23T21:15:14.353Z,17
2022-10-23T21:35:19.100Z,16.7
2022-10-23T21:45:20.823Z,16.4
2022-10-23T21:55:22.712Z,16.2
2022-10-23T23:05:37.016Z,16.1
2022-10-23T23:35:43.593Z,16.1
2022-10-23T23:45:45.376Z,16.1
